sensor_id;sensor_type;location;lat;lon;timestamp;P1;durP1;ratioP1;P2;durP2;ratioP2
21148;SDS011;10732;51.472;6.466;2023-06-14T00:02:12;6.72;;;5.32;;
21148;SDS011;10732;51.472;6.466;2023-06-14T00:04:38;6.53;;;5.45;;
21148;SDS011;10732;51.472;6.466;2023-06-14T00:07:06;7.63;;;4.85;;
21148;SDS011;10732;51.472;6.466;2023-06-14T00:09:34;6.43;;;5.05;;
21148;SDS011;10732;51.472;6.466;2023-06-14T00:12:00;7.50;;;5.50;;
21148;SDS011;10732;51.472;6.466;2023-06-14T00:14:26;10.02;;;5.50;;
21148;SDS011;10732;51.472;6.466;2023-06-14T00:16:51;6.38;;;5.13;;
21148;SDS011;10732;51.472;6.466;2023-06-14T00:19:23;7.10;;;4.70;;
21148;SDS011;10732;51.472;6.466;2023-06-14T00:21:50;9.48;;;5.40;;
21148;SDS011;10732;51.472;6.466;2023-06-14T00:24:16;6.40;;;5.35;;
21148;SDS011;10732;51.472;6.466;2023-06-14T00:26:42;6.32;;;5.03;;
21148;SDS011;10732;51.472;6.466;2023-06-14T00:29:07;5.68;;;4.70;;
21148;SDS011;10732;51.472;6.466;2023-06-14T00:31:33;5.63;;;4.97;;
21148;SDS011;10732;51.472;6.466;2023-06-14T00:33:58;6.78;;;5.18;;
21148;SDS011;10732;51.472;6.466;2023-06-14T00:36:25;8.60;;;4.75;;
21148;SDS011;10732;51.472;6.466;2023-06-14T00:38:50;8.38;;;5.00;;
21148;SDS011;10732;51.472;6.466;2023-06-14T00:41:16;5.60;;;4.97;;
21148;SDS011;10732;51.472;6.466;2023-06-14T00:43:41;6.18;;;4.75;;
21148;SDS011;10732;51.472;6.466;2023-06-14T00:46:07;6.22;;;4.95;;
21148;SDS011;10732;51.472;6.466;2023-06-14T00:48:33;7.28;;;5.25;;
21148;SDS011;10732;51.472;6.466;2023-06-14T00:51:00;5.18;;;4.60;;
21148;SDS011;10732;51.472;6.466;2023-06-14T00:53:28;5.88;;;5.28;;
21148;SDS011;10732;51.472;6.466;2023-06-14T00:55:56;7.68;;;5.10;;
21148;SDS011;10732;51.472;6.466;2023-06-14T00:58:21;6.88;;;5.40;;
21148;SDS011;10732;51.472;6.466;2023-06-14T01:00:48;7.30;;;5.18;;
21148;SDS011;10732;51.472;6.466;2023-06-14T01:03:13;7.95;;;4.97;;
21148;SDS011;10732;51.472;6.466;2023-06-14T01:05:44;5.70;;;4.78;;
21148;SDS011;10732;51.472;6.466;2023-06-14T01:13:40;9.27;;;5.35;;
21148;SDS011;10732;51.472;6.466;2023-06-14T01:16:10;6.97;;;5.18;;
21148;SDS011;10732;51.472;6.466;2023-06-14T01:18:36;8.82;;;5.20;;
21148;SDS011;10732;51.472;6.466;2023-06-14T01:21:02;5.70;;;5.10;;
21148;SDS011;10732;51.472;6.466;2023-06-14T01:23:31;5.35;;;4.80;;
21148;SDS011;10732;51.472;6.466;2023-06-14T01:26:00;8.43;;;5.25;;
21148;SDS011;10732;51.472;6.466;2023-06-14T01:28:27;6.75;;;5.35;;
21148;SDS011;10732;51.472;6.466;2023-06-14T01:30:57;7.53;;;4.95;;
21148;SDS011;10732;51.472;6.466;2023-06-14T01:33:28;7.05;;;4.85;;
21148;SDS011;10732;51.472;6.466;2023-06-14T01:35:55;8.30;;;4.97;;
21148;SDS011;10732;51.472;6.466;2023-06-14T01:38:22;6.93;;;5.10;;
21148;SDS011;10732;51.472;6.466;2023-06-14T01:40:49;12.35;;;5.63;;
21148;SDS011;10732;51.472;6.466;2023-06-14T01:43:16;6.43;;;4.80;;
21148;SDS011;10732;51.472;6.466;2023-06-14T01:45:42;7.35;;;5.15;;
21148;SDS011;10732;51.472;6.466;2023-06-14T01:48:12;9.93;;;5.45;;
21148;SDS011;10732;51.472;6.466;2023-06-14T01:50:37;9.02;;;5.00;;
21148;SDS011;10732;51.472;6.466;2023-06-14T01:53:06;8.85;;;5.00;;
21148;SDS011;10732;51.472;6.466;2023-06-14T01:55:33;7.63;;;5.07;;
21148;SDS011;10732;51.472;6.466;2023-06-14T01:58:02;6.68;;;5.25;;
21148;SDS011;10732;51.472;6.466;2023-06-14T02:00:28;7.15;;;4.90;;
21148;SDS011;10732;51.472;6.466;2023-06-14T02:02:53;10.25;;;4.93;;
21148;SDS011;10732;51.472;6.466;2023-06-14T02:05:19;8.32;;;4.88;;
21148;SDS011;10732;51.472;6.466;2023-06-14T02:07:44;6.10;;;4.60;;
21148;SDS011;10732;51.472;6.466;2023-06-14T02:10:11;8.55;;;4.93;;
21148;SDS011;10732;51.472;6.466;2023-06-14T02:12:37;8.70;;;4.97;;
21148;SDS011;10732;51.472;6.466;2023-06-14T02:15:02;8.90;;;4.82;;
21148;SDS011;10732;51.472;6.466;2023-06-14T02:17:29;8.65;;;4.88;;
21148;SDS011;10732;51.472;6.466;2023-06-14T02:19:54;9.10;;;4.65;;
21148;SDS011;10732;51.472;6.466;2023-06-14T02:22:22;6.78;;;4.65;;
21148;SDS011;10732;51.472;6.466;2023-06-14T02:24:47;6.70;;;4.78;;
21148;SDS011;10732;51.472;6.466;2023-06-14T02:27:13;5.63;;;4.43;;
21148;SDS011;10732;51.472;6.466;2023-06-14T02:29:39;8.15;;;4.93;;
21148;SDS011;10732;51.472;6.466;2023-06-14T02:32:05;6.10;;;4.75;;
21148;SDS011;10732;51.472;6.466;2023-06-14T02:34:32;9.45;;;4.53;;
21148;SDS011;10732;51.472;6.466;2023-06-14T02:36:58;7.07;;;4.68;;
21148;SDS011;10732;51.472;6.466;2023-06-14T02:39:24;8.35;;;4.55;;
21148;SDS011;10732;51.472;6.466;2023-06-14T02:41:50;6.90;;;4.15;;
21148;SDS011;10732;51.472;6.466;2023-06-14T02:44:17;5.05;;;4.43;;
21148;SDS011;10732;51.472;6.466;2023-06-14T02:46:43;6.68;;;4.38;;
21148;SDS011;10732;51.472;6.466;2023-06-14T02:49:10;8.45;;;4.72;;
21148;SDS011;10732;51.472;6.466;2023-06-14T02:51:36;7.55;;;4.40;;
21148;SDS011;10732;51.472;6.466;2023-06-14T02:54:01;5.15;;;4.65;;
21148;SDS011;10732;51.472;6.466;2023-06-14T02:56:28;8.40;;;4.75;;
21148;SDS011;10732;51.472;6.466;2023-06-14T02:58:54;7.47;;;4.47;;
21148;SDS011;10732;51.472;6.466;2023-06-14T03:01:20;7.20;;;4.40;;
21148;SDS011;10732;51.472;6.466;2023-06-14T03:03:46;8.32;;;4.63;;
21148;SDS011;10732;51.472;6.466;2023-06-14T03:06:12;10.52;;;5.20;;
21148;SDS011;10732;51.472;6.466;2023-06-14T03:08:39;9.50;;;4.93;;
21148;SDS011;10732;51.472;6.466;2023-06-14T03:11:06;8.15;;;4.38;;
21148;SDS011;10732;51.472;6.466;2023-06-14T03:13:33;12.43;;;4.70;;
21148;SDS011;10732;51.472;6.466;2023-06-14T03:15:59;10.15;;;4.60;;
21148;SDS011;10732;51.472;6.466;2023-06-14T03:18:31;9.43;;;4.80;;
21148;SDS011;10732;51.472;6.466;2023-06-14T03:21:00;7.97;;;4.45;;
21148;SDS011;10732;51.472;6.466;2023-06-14T03:23:28;8.23;;;4.60;;
21148;SDS011;10732;51.472;6.466;2023-06-14T03:25:54;7.88;;;4.63;;
21148;SDS011;10732;51.472;6.466;2023-06-14T03:28:19;15.48;;;5.07;;
21148;SDS011;10732;51.472;6.466;2023-06-14T03:30:45;8.27;;;4.57;;
21148;SDS011;10732;51.472;6.466;2023-06-14T03:33:10;6.75;;;4.38;;
21148;SDS011;10732;51.472;6.466;2023-06-14T03:35:36;11.30;;;4.43;;
21148;SDS011;10732;51.472;6.466;2023-06-14T03:38:02;6.18;;;4.22;;
21148;SDS011;10732;51.472;6.466;2023-06-14T03:40:28;8.88;;;4.43;;
21148;SDS011;10732;51.472;6.466;2023-06-14T03:42:54;5.82;;;4.15;;
21148;SDS011;10732;51.472;6.466;2023-06-14T03:45:20;5.25;;;4.03;;
21148;SDS011;10732;51.472;6.466;2023-06-14T03:47:46;8.57;;;4.13;;
21148;SDS011;10732;51.472;6.466;2023-06-14T03:50:12;7.90;;;4.32;;
21148;SDS011;10732;51.472;6.466;2023-06-14T03:52:37;6.55;;;4.35;;
21148;SDS011;10732;51.472;6.466;2023-06-14T03:55:03;5.78;;;3.97;;
21148;SDS011;10732;51.472;6.466;2023-06-14T03:57:29;7.10;;;4.25;;
21148;SDS011;10732;51.472;6.466;2023-06-14T03:59:55;7.63;;;5.40;;
21148;SDS011;10732;51.472;6.466;2023-06-14T04:02:21;18.48;;;4.55;;
21148;SDS011;10732;51.472;6.466;2023-06-14T04:04:47;10.35;;;4.70;;
21148;SDS011;10732;51.472;6.466;2023-06-14T04:07:13;6.15;;;4.22;;
21148;SDS011;10732;51.472;6.466;2023-06-14T04:09:40;9.38;;;4.35;;
21148;SDS011;10732;51.472;6.466;2023-06-14T04:12:06;6.30;;;4.50;;
21148;SDS011;10732;51.472;6.466;2023-06-14T04:14:33;7.55;;;4.07;;
21148;SDS011;10732;51.472;6.466;2023-06-14T04:16:59;9.38;;;4.35;;
21148;SDS011;10732;51.472;6.466;2023-06-14T04:19:25;7.30;;;4.65;;
21148;SDS011;10732;51.472;6.466;2023-06-14T04:21:51;11.93;;;4.32;;
21148;SDS011;10732;51.472;6.466;2023-06-14T04:24:16;12.18;;;4.53;;
21148;SDS011;10732;51.472;6.466;2023-06-14T04:26:42;10.88;;;4.40;;
21148;SDS011;10732;51.472;6.466;2023-06-14T04:29:12;7.10;;;4.43;;
21148;SDS011;10732;51.472;6.466;2023-06-14T04:31:44;11.98;;;4.38;;
21148;SDS011;10732;51.472;6.466;2023-06-14T04:34:11;11.48;;;4.18;;
21148;SDS011;10732;51.472;6.466;2023-06-14T04:36:41;9.15;;;3.92;;
21148;SDS011;10732;51.472;6.466;2023-06-14T04:39:16;18.00;;;4.50;;
21148;SDS011;10732;51.472;6.466;2023-06-14T04:41:42;9.57;;;3.97;;
21148;SDS011;10732;51.472;6.466;2023-06-14T04:44:08;9.27;;;4.22;;
21148;SDS011;10732;51.472;6.466;2023-06-14T04:46:35;6.70;;;3.88;;
21148;SDS011;10732;51.472;6.466;2023-06-14T04:49:09;10.20;;;4.25;;
21148;SDS011;10732;51.472;6.466;2023-06-14T04:51:35;12.40;;;4.00;;
21148;SDS011;10732;51.472;6.466;2023-06-14T04:54:02;5.85;;;3.70;;
21148;SDS011;10732;51.472;6.466;2023-06-14T04:56:28;8.00;;;3.67;;
21148;SDS011;10732;51.472;6.466;2023-06-14T04:58:54;7.43;;;3.60;;
21148;SDS011;10732;51.472;6.466;2023-06-14T05:01:21;8.52;;;3.38;;
21148;SDS011;10732;51.472;6.466;2023-06-14T05:03:48;12.50;;;3.80;;
21148;SDS011;10732;51.472;6.466;2023-06-14T05:06:14;7.50;;;3.50;;
21148;SDS011;10732;51.472;6.466;2023-06-14T05:08:40;7.88;;;3.55;;
21148;SDS011;10732;51.472;6.466;2023-06-14T05:11:06;5.82;;;3.72;;
21148;SDS011;10732;51.472;6.466;2023-06-14T05:13:31;7.53;;;3.90;;
21148;SDS011;10732;51.472;6.466;2023-06-14T05:15:57;7.00;;;3.70;;
21148;SDS011;10732;51.472;6.466;2023-06-14T05:18:24;5.15;;;3.33;;
21148;SDS011;10732;51.472;6.466;2023-06-14T05:20:50;6.93;;;3.45;;
21148;SDS011;10732;51.472;6.466;2023-06-14T05:23:16;8.05;;;3.17;;
21148;SDS011;10732;51.472;6.466;2023-06-14T05:25:44;6.90;;;3.85;;
21148;SDS011;10732;51.472;6.466;2023-06-14T05:28:11;5.10;;;3.50;;
21148;SDS011;10732;51.472;6.466;2023-06-14T05:30:39;8.05;;;3.85;;
21148;SDS011;10732;51.472;6.466;2023-06-14T05:33:05;8.70;;;3.70;;
21148;SDS011;10732;51.472;6.466;2023-06-14T05:35:30;9.00;;;3.75;;
21148;SDS011;10732;51.472;6.466;2023-06-14T05:37:56;8.15;;;3.60;;
21148;SDS011;10732;51.472;6.466;2023-06-14T05:40:21;10.93;;;3.90;;
21148;SDS011;10732;51.472;6.466;2023-06-14T05:42:47;10.32;;;3.80;;
21148;SDS011;10732;51.472;6.466;2023-06-14T05:45:12;8.80;;;3.80;;
21148;SDS011;10732;51.472;6.466;2023-06-14T05:47:40;10.75;;;3.83;;
21148;SDS011;10732;51.472;6.466;2023-06-14T05:50:05;10.07;;;3.65;;
21148;SDS011;10732;51.472;6.466;2023-06-14T05:52:31;8.70;;;4.28;;
21148;SDS011;10732;51.472;6.466;2023-06-14T05:54:58;9.52;;;4.00;;
21148;SDS011;10732;51.472;6.466;2023-06-14T05:57:24;12.10;;;4.15;;
21148;SDS011;10732;51.472;6.466;2023-06-14T05:59:50;13.93;;;4.35;;
21148;SDS011;10732;51.472;6.466;2023-06-14T06:02:16;12.60;;;4.15;;
21148;SDS011;10732;51.472;6.466;2023-06-14T06:04:41;9.80;;;4.03;;
21148;SDS011;10732;51.472;6.466;2023-06-14T06:07:07;7.78;;;3.70;;
21148;SDS011;10732;51.472;6.466;2023-06-14T06:09:32;11.38;;;4.28;;
21148;SDS011;10732;51.472;6.466;2023-06-14T06:11:58;8.60;;;3.97;;
21148;SDS011;10732;51.472;6.466;2023-06-14T06:14:24;11.30;;;3.95;;
21148;SDS011;10732;51.472;6.466;2023-06-14T06:16:50;9.50;;;3.75;;
21148;SDS011;10732;51.472;6.466;2023-06-14T06:19:17;10.07;;;4.03;;
21148;SDS011;10732;51.472;6.466;2023-06-14T06:21:43;9.00;;;3.50;;
21148;SDS011;10732;51.472;6.466;2023-06-14T06:24:08;7.13;;;3.95;;
21148;SDS011;10732;51.472;6.466;2023-06-14T06:26:34;10.60;;;3.95;;
21148;SDS011;10732;51.472;6.466;2023-06-14T06:28:59;10.63;;;4.63;;
21148;SDS011;10732;51.472;6.466;2023-06-14T06:31:25;9.77;;;3.80;;
21148;SDS011;10732;51.472;6.466;2023-06-14T06:33:52;11.45;;;4.03;;
21148;SDS011;10732;51.472;6.466;2023-06-14T06:36:19;6.65;;;3.70;;
21148;SDS011;10732;51.472;6.466;2023-06-14T06:38:46;12.27;;;3.58;;
21148;SDS011;10732;51.472;6.466;2023-06-14T06:41:12;8.23;;;3.75;;
21148;SDS011;10732;51.472;6.466;2023-06-14T06:43:37;9.27;;;3.45;;
21148;SDS011;10732;51.472;6.466;2023-06-14T06:46:03;10.40;;;3.78;;
21148;SDS011;10732;51.472;6.466;2023-06-14T06:48:28;6.00;;;3.00;;
21148;SDS011;10732;51.472;6.466;2023-06-14T06:50:54;9.52;;;3.42;;
21148;SDS011;10732;51.472;6.466;2023-06-14T06:53:20;10.40;;;3.75;;
21148;SDS011;10732;51.472;6.466;2023-06-14T06:55:45;4.75;;;3.00;;
21148;SDS011;10732;51.472;6.466;2023-06-14T06:58:11;7.60;;;3.00;;
21148;SDS011;10732;51.472;6.466;2023-06-14T07:00:37;9.02;;;3.30;;
21148;SDS011;10732;51.472;6.466;2023-06-14T07:03:03;10.95;;;3.38;;
21148;SDS011;10732;51.472;6.466;2023-06-14T07:05:29;10.50;;;3.92;;
21148;SDS011;10732;51.472;6.466;2023-06-14T07:07:54;8.75;;;3.35;;
21148;SDS011;10732;51.472;6.466;2023-06-14T07:10:20;5.13;;;3.22;;
21148;SDS011;10732;51.472;6.466;2023-06-14T07:12:45;6.30;;;3.00;;
21148;SDS011;10732;51.472;6.466;2023-06-14T07:15:11;8.20;;;2.80;;
21148;SDS011;10732;51.472;6.466;2023-06-14T07:17:37;8.77;;;2.80;;
21148;SDS011;10732;51.472;6.466;2023-06-14T07:20:03;9.30;;;2.92;;
21148;SDS011;10732;51.472;6.466;2023-06-14T07:22:39;7.10;;;2.75;;
21148;SDS011;10732;51.472;6.466;2023-06-14T07:25:06;9.68;;;2.72;;
21148;SDS011;10732;51.472;6.466;2023-06-14T07:27:33;6.07;;;2.78;;
21148;SDS011;10732;51.472;6.466;2023-06-14T07:29:59;7.63;;;2.22;;
21148;SDS011;10732;51.472;6.466;2023-06-14T07:32:24;11.27;;;2.00;;
21148;SDS011;10732;51.472;6.466;2023-06-14T07:34:50;6.65;;;1.98;;
21148;SDS011;10732;51.472;6.466;2023-06-14T07:37:15;6.25;;;2.17;;
21148;SDS011;10732;51.472;6.466;2023-06-14T07:39:41;8.93;;;1.83;;
21148;SDS011;10732;51.472;6.466;2023-06-14T07:42:07;10.27;;;1.85;;
21148;SDS011;10732;51.472;6.466;2023-06-14T07:44:32;7.88;;;2.20;;
21148;SDS011;10732;51.472;6.466;2023-06-14T07:46:58;11.90;;;2.20;;
21148;SDS011;10732;51.472;6.466;2023-06-14T07:49:25;7.15;;;1.85;;
21148;SDS011;10732;51.472;6.466;2023-06-14T07:51:51;7.10;;;2.17;;
21148;SDS011;10732;51.472;6.466;2023-06-14T07:54:16;8.95;;;2.40;;
21148;SDS011;10732;51.472;6.466;2023-06-14T07:56:42;7.20;;;2.00;;
21148;SDS011;10732;51.472;6.466;2023-06-14T07:59:07;5.78;;;2.25;;
21148;SDS011;10732;51.472;6.466;2023-06-14T08:01:33;4.53;;;2.28;;
21148;SDS011;10732;51.472;6.466;2023-06-14T08:03:59;5.72;;;2.25;;
21148;SDS011;10732;51.472;6.466;2023-06-14T08:06:26;3.42;;;2.08;;
21148;SDS011;10732;51.472;6.466;2023-06-14T08:08:51;7.07;;;2.17;;
21148;SDS011;10732;51.472;6.466;2023-06-14T08:11:17;4.70;;;1.75;;
21148;SDS011;10732;51.472;6.466;2023-06-14T08:13:42;3.72;;;2.03;;
21148;SDS011;10732;51.472;6.466;2023-06-14T08:16:08;7.20;;;2.20;;
21148;SDS011;10732;51.472;6.466;2023-06-14T08:18:34;3.53;;;2.15;;
21148;SDS011;10732;51.472;6.466;2023-06-14T08:20:59;7.15;;;1.80;;
21148;SDS011;10732;51.472;6.466;2023-06-14T08:23:25;4.07;;;2.80;;
21148;SDS011;10732;51.472;6.466;2023-06-14T08:25:50;2.67;;;2.00;;
21148;SDS011;10732;51.472;6.466;2023-06-14T08:28:16;3.28;;;2.00;;
21148;SDS011;10732;51.472;6.466;2023-06-14T08:30:42;3.55;;;1.90;;
21148;SDS011;10732;51.472;6.466;2023-06-14T08:33:08;5.50;;;1.80;;
21148;SDS011;10732;51.472;6.466;2023-06-14T08:35:33;6.38;;;1.67;;
21148;SDS011;10732;51.472;6.466;2023-06-14T08:38:02;7.32;;;2.00;;
21148;SDS011;10732;51.472;6.466;2023-06-14T08:40:28;5.80;;;1.95;;
21148;SDS011;10732;51.472;6.466;2023-06-14T08:42:55;6.13;;;2.15;;
21148;SDS011;10732;51.472;6.466;2023-06-14T08:45:21;5.32;;;2.47;;
21148;SDS011;10732;51.472;6.466;2023-06-14T08:47:48;4.90;;;2.08;;
21148;SDS011;10732;51.472;6.466;2023-06-14T08:50:18;3.08;;;1.80;;
21148;SDS011;10732;51.472;6.466;2023-06-14T08:52:46;7.53;;;2.00;;
21148;SDS011;10732;51.472;6.466;2023-06-14T08:55:17;6.70;;;1.90;;
21148;SDS011;10732;51.472;6.466;2023-06-14T08:57:44;3.50;;;1.77;;
21148;SDS011;10732;51.472;6.466;2023-06-14T09:00:12;7.40;;;2.13;;
21148;SDS011;10732;51.472;6.466;2023-06-14T09:02:38;9.00;;;2.30;;
21148;SDS011;10732;51.472;6.466;2023-06-14T09:05:08;4.63;;;1.88;;
21148;SDS011;10732;51.472;6.466;2023-06-14T09:07:38;3.80;;;1.70;;
21148;SDS011;10732;51.472;6.466;2023-06-14T09:10:11;3.35;;;2.00;;
21148;SDS011;10732;51.472;6.466;2023-06-14T09:12:37;4.80;;;1.92;;
21148;SDS011;10732;51.472;6.466;2023-06-14T09:15:04;3.83;;;1.88;;
21148;SDS011;10732;51.472;6.466;2023-06-14T09:17:33;6.03;;;1.95;;
21148;SDS011;10732;51.472;6.466;2023-06-14T09:20:00;3.45;;;1.83;;
21148;SDS011;10732;51.472;6.466;2023-06-14T09:22:29;3.63;;;1.60;;
21148;SDS011;10732;51.472;6.466;2023-06-14T09:24:55;3.88;;;1.88;;
21148;SDS011;10732;51.472;6.466;2023-06-14T09:27:21;5.35;;;1.73;;
21148;SDS011;10732;51.472;6.466;2023-06-14T09:29:46;6.82;;;1.80;;
21148;SDS011;10732;51.472;6.466;2023-06-14T09:32:12;9.82;;;1.95;;
21148;SDS011;10732;51.472;6.466;2023-06-14T09:34:37;5.15;;;1.52;;
21148;SDS011;10732;51.472;6.466;2023-06-14T09:37:03;2.58;;;1.73;;
21148;SDS011;10732;51.472;6.466;2023-06-14T09:39:29;7.15;;;1.90;;
21148;SDS011;10732;51.472;6.466;2023-06-14T09:41:55;4.00;;;1.77;;
21148;SDS011;10732;51.472;6.466;2023-06-14T09:44:20;3.70;;;1.58;;
21148;SDS011;10732;51.472;6.466;2023-06-14T09:46:50;3.10;;;1.77;;
21148;SDS011;10732;51.472;6.466;2023-06-14T09:49:16;6.88;;;1.92;;
21148;SDS011;10732;51.472;6.466;2023-06-14T09:51:45;2.65;;;1.80;;
21148;SDS011;10732;51.472;6.466;2023-06-14T09:54:15;3.33;;;1.90;;
21148;SDS011;10732;51.472;6.466;2023-06-14T09:56:45;2.63;;;1.70;;
21148;SDS011;10732;51.472;6.466;2023-06-14T09:59:12;5.75;;;1.95;;
21148;SDS011;10732;51.472;6.466;2023-06-14T10:01:42;3.15;;;2.00;;
21148;SDS011;10732;51.472;6.466;2023-06-14T10:04:09;3.72;;;1.80;;
21148;SDS011;10732;51.472;6.466;2023-06-14T10:06:43;3.85;;;1.85;;
21148;SDS011;10732;51.472;6.466;2023-06-14T10:09:13;4.72;;;2.05;;
21148;SDS011;10732;51.472;6.466;2023-06-14T10:11:39;6.18;;;2.00;;
21148;SDS011;10732;51.472;6.466;2023-06-14T10:14:08;2.10;;;1.70;;
21148;SDS011;10732;51.472;6.466;2023-06-14T10:19:42;5.38;;;1.73;;
21148;SDS011;10732;51.472;6.466;2023-06-14T10:22:14;4.40;;;1.63;;
21148;SDS011;10732;51.472;6.466;2023-06-14T10:24:48;3.88;;;1.80;;
21148;SDS011;10732;51.472;6.466;2023-06-14T10:27:15;5.05;;;1.80;;
21148;SDS011;10732;51.472;6.466;2023-06-14T10:30:07;4.75;;;1.80;;
21148;SDS011;10732;51.472;6.466;2023-06-14T10:32:30;4.47;;;1.67;;
21148;SDS011;10732;51.472;6.466;2023-06-14T10:34:58;4.40;;;1.65;;
21148;SDS011;10732;51.472;6.466;2023-06-14T10:37:24;2.03;;;1.50;;
21148;SDS011;10732;51.472;6.466;2023-06-14T10:39:50;4.20;;;1.65;;
21148;SDS011;10732;51.472;6.466;2023-06-14T10:42:15;4.15;;;1.67;;
21148;SDS011;10732;51.472;6.466;2023-06-14T10:44:42;2.00;;;1.35;;
21148;SDS011;10732;51.472;6.466;2023-06-14T10:47:20;4.15;;;1.60;;
21148;SDS011;10732;51.472;6.466;2023-06-14T10:49:55;3.95;;;1.40;;
21148;SDS011;10732;51.472;6.466;2023-06-14T10:52:35;3.63;;;1.40;;
21148;SDS011;10732;51.472;6.466;2023-06-14T11:00:16;2.20;;;1.05;;
21148;SDS011;10732;51.472;6.466;2023-06-14T11:05:24;4.05;;;1.60;;
21148;SDS011;10732;51.472;6.466;2023-06-14T11:10:41;1.30;;;1.20;;
21148;SDS011;10732;51.472;6.466;2023-06-14T11:13:08;3.72;;;1.20;;
21148;SDS011;10732;51.472;6.466;2023-06-14T11:15:37;2.35;;;1.20;;
21148;SDS011;10732;51.472;6.466;2023-06-14T11:18:08;4.45;;;1.20;;
21148;SDS011;10732;51.472;6.466;2023-06-14T11:20:36;4.82;;;1.33;;
21148;SDS011;10732;51.472;6.466;2023-06-14T11:23:02;4.53;;;1.58;;
21148;SDS011;10732;51.472;6.466;2023-06-14T11:25:29;3.90;;;1.42;;
21148;SDS011;10732;51.472;6.466;2023-06-14T11:27:55;3.08;;;1.20;;
21148;SDS011;10732;51.472;6.466;2023-06-14T11:30:21;2.83;;;1.08;;
21148;SDS011;10732;51.472;6.466;2023-06-14T11:32:48;4.13;;;1.23;;
21148;SDS011;10732;51.472;6.466;2023-06-14T11:35:14;3.85;;;1.25;;
21148;SDS011;10732;51.472;6.466;2023-06-14T11:37:40;2.67;;;1.20;;
21148;SDS011;10732;51.472;6.466;2023-06-14T11:40:07;2.70;;;1.27;;
21148;SDS011;10732;51.472;6.466;2023-06-14T11:42:35;5.43;;;1.40;;
21148;SDS011;10732;51.472;6.466;2023-06-14T11:45:01;3.25;;;1.17;;
21148;SDS011;10732;51.472;6.466;2023-06-14T11:47:37;2.20;;;1.00;;
21148;SDS011;10732;51.472;6.466;2023-06-14T11:50:05;4.82;;;1.40;;
21148;SDS011;10732;51.472;6.466;2023-06-14T11:52:32;5.05;;;1.50;;
21148;SDS011;10732;51.472;6.466;2023-06-14T11:54:58;7.70;;;1.50;;
21148;SDS011;10732;51.472;6.466;2023-06-14T11:57:24;4.20;;;1.40;;
21148;SDS011;10732;51.472;6.466;2023-06-14T11:59:50;2.80;;;1.23;;
21148;SDS011;10732;51.472;6.466;2023-06-14T12:02:16;3.95;;;1.20;;
21148;SDS011;10732;51.472;6.466;2023-06-14T12:04:42;3.35;;;1.40;;
21148;SDS011;10732;51.472;6.466;2023-06-14T12:07:09;2.95;;;1.42;;
21148;SDS011;10732;51.472;6.466;2023-06-14T12:09:39;3.97;;;1.33;;
21148;SDS011;10732;51.472;6.466;2023-06-14T12:12:04;4.40;;;1.45;;
21148;SDS011;10732;51.472;6.466;2023-06-14T12:14:31;3.60;;;1.50;;
21148;SDS011;10732;51.472;6.466;2023-06-14T12:17:04;2.30;;;1.40;;
21148;SDS011;10732;51.472;6.466;2023-06-14T12:19:31;4.53;;;1.40;;
21148;SDS011;10732;51.472;6.466;2023-06-14T12:21:59;3.92;;;1.40;;
21148;SDS011;10732;51.472;6.466;2023-06-14T12:24:29;6.65;;;1.70;;
21148;SDS011;10732;51.472;6.466;2023-06-14T12:26:57;6.05;;;1.40;;
21148;SDS011;10732;51.472;6.466;2023-06-14T12:29:27;3.92;;;1.35;;
21148;SDS011;10732;51.472;6.466;2023-06-14T12:31:53;2.25;;;1.38;;
21148;SDS011;10732;51.472;6.466;2023-06-14T12:34:22;6.82;;;1.25;;
21148;SDS011;10732;51.472;6.466;2023-06-14T12:36:51;4.90;;;1.40;;
21148;SDS011;10732;51.472;6.466;2023-06-14T12:39:18;1.83;;;1.38;;
21148;SDS011;10732;51.472;6.466;2023-06-14T12:41:44;2.80;;;1.23;;
21148;SDS011;10732;51.472;6.466;2023-06-14T12:44:10;6.38;;;1.58;;
21148;SDS011;10732;51.472;6.466;2023-06-14T12:46:36;2.58;;;1.50;;
21148;SDS011;10732;51.472;6.466;2023-06-14T12:49:04;5.15;;;1.42;;
21148;SDS011;10732;51.472;6.466;2023-06-14T12:51:30;6.20;;;1.70;;
21148;SDS011;10732;51.472;6.466;2023-06-14T12:53:55;5.40;;;1.40;;
21148;SDS011;10732;51.472;6.466;2023-06-14T12:56:21;2.38;;;1.30;;
21148;SDS011;10732;51.472;6.466;2023-06-14T12:58:47;4.18;;;1.70;;
21148;SDS011;10732;51.472;6.466;2023-06-14T13:01:12;4.88;;;1.90;;
21148;SDS011;10732;51.472;6.466;2023-06-14T13:03:38;5.32;;;1.80;;
21148;SDS011;10732;51.472;6.466;2023-06-14T13:06:03;4.03;;;1.60;;
21148;SDS011;10732;51.472;6.466;2023-06-14T13:08:29;3.22;;;1.77;;
21148;SDS011;10732;51.472;6.466;2023-06-14T13:10:55;4.50;;;1.58;;
21148;SDS011;10732;51.472;6.466;2023-06-14T13:13:21;5.57;;;1.50;;
21148;SDS011;10732;51.472;6.466;2023-06-14T13:15:46;4.72;;;1.50;;
21148;SDS011;10732;51.472;6.466;2023-06-14T13:18:13;7.72;;;1.50;;
21148;SDS011;10732;51.472;6.466;2023-06-14T13:20:39;2.05;;;1.20;;
21148;SDS011;10732;51.472;6.466;2023-06-14T13:23:04;6.30;;;1.70;;
21148;SDS011;10732;51.472;6.466;2023-06-14T13:25:32;4.03;;;1.58;;
21148;SDS011;10732;51.472;6.466;2023-06-14T13:27:58;4.10;;;1.58;;
21148;SDS011;10732;51.472;6.466;2023-06-14T13:30:24;7.88;;;1.80;;
21148;SDS011;10732;51.472;6.466;2023-06-14T13:32:50;4.30;;;1.90;;
21148;SDS011;10732;51.472;6.466;2023-06-14T13:35:17;8.52;;;1.70;;
21148;SDS011;10732;51.472;6.466;2023-06-14T13:37:43;3.53;;;1.85;;
21148;SDS011;10732;51.472;6.466;2023-06-14T13:40:08;5.20;;;1.70;;
21148;SDS011;10732;51.472;6.466;2023-06-14T13:42:34;3.15;;;1.52;;
21148;SDS011;10732;51.472;6.466;2023-06-14T13:45:01;5.07;;;1.73;;
21148;SDS011;10732;51.472;6.466;2023-06-14T13:47:27;4.82;;;1.75;;
21148;SDS011;10732;51.472;6.466;2023-06-14T13:49:53;2.97;;;1.73;;
21148;SDS011;10732;51.472;6.466;2023-06-14T13:52:19;5.30;;;1.98;;
21148;SDS011;10732;51.472;6.466;2023-06-14T13:54:44;5.22;;;1.77;;
21148;SDS011;10732;51.472;6.466;2023-06-14T13:57:10;3.22;;;1.80;;
21148;SDS011;10732;51.472;6.466;2023-06-14T13:59:37;3.97;;;1.77;;
21148;SDS011;10732;51.472;6.466;2023-06-14T14:02:03;7.70;;;1.98;;
21148;SDS011;10732;51.472;6.466;2023-06-14T14:04:30;3.88;;;2.00;;
21148;SDS011;10732;51.472;6.466;2023-06-14T14:06:56;4.90;;;1.95;;
21148;SDS011;10732;51.472;6.466;2023-06-14T14:09:22;3.22;;;1.90;;
21148;SDS011;10732;51.472;6.466;2023-06-14T14:11:47;2.70;;;1.70;;
21148;SDS011;10732;51.472;6.466;2023-06-14T14:14:13;4.30;;;1.80;;
21148;SDS011;10732;51.472;6.466;2023-06-14T14:16:39;4.38;;;2.10;;
21148;SDS011;10732;51.472;6.466;2023-06-14T14:19:05;5.65;;;1.90;;
21148;SDS011;10732;51.472;6.466;2023-06-14T14:21:31;9.35;;;2.00;;
21148;SDS011;10732;51.472;6.466;2023-06-14T14:23:57;6.68;;;2.28;;
21148;SDS011;10732;51.472;6.466;2023-06-14T14:26:23;4.75;;;2.47;;
21148;SDS011;10732;51.472;6.466;2023-06-14T14:28:49;3.60;;;2.10;;
21148;SDS011;10732;51.472;6.466;2023-06-14T14:31:16;3.55;;;2.17;;
21148;SDS011;10732;51.472;6.466;2023-06-14T14:33:41;6.30;;;2.17;;
21148;SDS011;10732;51.472;6.466;2023-06-14T14:36:07;6.57;;;2.45;;
21148;SDS011;10732;51.472;6.466;2023-06-14T14:38:33;5.63;;;1.95;;
21148;SDS011;10732;51.472;6.466;2023-06-14T14:40:58;5.22;;;1.92;;
21148;SDS011;10732;51.472;6.466;2023-06-14T14:43:24;5.57;;;1.98;;
21148;SDS011;10732;51.472;6.466;2023-06-14T14:45:50;6.80;;;2.13;;
21148;SDS011;10732;51.472;6.466;2023-06-14T14:48:15;8.60;;;2.03;;
21148;SDS011;10732;51.472;6.466;2023-06-14T14:50:41;7.95;;;2.30;;
21148;SDS011;10732;51.472;6.466;2023-06-14T14:53:06;3.55;;;1.95;;
21148;SDS011;10732;51.472;6.466;2023-06-14T14:55:32;5.65;;;2.20;;
21148;SDS011;10732;51.472;6.466;2023-06-14T14:58:01;3.65;;;1.95;;
21148;SDS011;10732;51.472;6.466;2023-06-14T15:00:27;4.55;;;2.20;;
21148;SDS011;10732;51.472;6.466;2023-06-14T15:02:53;4.78;;;2.10;;